Palmayachts — CRA6482 — position and weather

sailwx.info

Track history (hours):
 
Tides and Currents Weather Stations Pressure Air Temp Water Temp Dewpoint Dewpoint Depression Visibility Wind Speed Wind Dir Waves Ship Positions

Palmayachts

Last reported at 2017-Sep-19 19:11 UTC. Time now 2017-Sep-19 22:42 UTC.
Position N 38°42' W 009°12'.

Length 11 m.

Type: Sailing vessel. MMSI: 263950950.

Date/timePositionNaut miles runAvg speedWind from/ knotsBaromVisibWave heightAir tempDewpointWater temp
2017-Sep-19 19:11N 38°42' W 009°12'0 1.0
2017-Sep-19 19:00N 38°41' W 009°12'3 6.1
2017-Sep-19 18:30N 38°42' W 009°08'2 3.2
2017-Sep-19 18:00N 38°42' W 009°10'2 4.2
2017-Sep-19 17:29N 38°41' W 009°13'1 0.0
2017-Sep-18 19:55N 38°42' W 009°12'1 3.1
2017-Sep-18 19:28N 38°41' W 009°11'2 4.6
2017-Sep-18 19:00N 38°42' W 009°08'3 4.7
2017-Sep-18 18:27N 38°42' W 009°12'1 1.1
2017-Sep-18 17:57N 38°42' W 009°12'1 3.3
2017-Sep-18 17:30N 38°41' W 009°10'1 2.0
2017-Sep-18 16:56N 38°42' W 009°09'2 4.6
2017-Sep-18 16:30N 38°42' W 009°12'0 0.5
2017-Sep-18 15:58N 38°42' W 009°12'1 1.4
2017-Sep-18 15:29N 38°42' W 009°11'1 0.4
2017-Sep-18 13:53N 38°42' W 009°12'1 2.8
2017-Sep-18 13:29N 38°41' W 009°11'2 4.1
2017-Sep-18 13:00N 38°42' W 009°09'1 1.4
2017-Sep-18 12:30N 38°42' W 009°09'2 4.3
2017-Sep-18 12:00N 38°42' W 009°12'0 0.3
2017-Sep-18 11:26N 38°42' W 009°12'0 0.0
2017-Sep-18 09:48N 38°42' W 009°12'0 0.0
2017-Sep-17 18:24N 38°42' W 009°12'1 2.7
2017-Sep-17 17:59N 38°41' W 009°11'2 3.4
2017-Sep-17 17:24N 38°42' W 009°09'2 4.2
2017-Sep-17 17:00N 38°42' W 009°11'1 2.3
2017-Sep-17 16:31N 38°42' W 009°12'0 0.0
2017-Sep-17 12:02N 38°42' W 009°12'0 0.2
2017-Sep-17 11:59N 38°42' W 009°12'1 2.8
2017-Sep-17 11:29N 38°42' W 009°10'2 3.8
2017-Sep-17 10:58N 38°42' W 009°08'2 3.1
2017-Sep-17 10:22N 38°42' W 009°06'1 2.6
2017-Sep-17 09:59N 38°41' W 009°06'3 6.4
2017-Sep-17 09:30N 38°41' W 009°10'2 0.1
2017-Sep-16 13:23N 38°42' W 009°12'0 0.3
2017-Sep-16 12:58N 38°42' W 009°12'2 4.7
2017-Sep-16 12:29N 38°42' W 009°09'1 1.6
2017-Sep-16 11:51N 38°42' W 009°08'2 5.8
2017-Sep-16 11:30N 38°42' W 009°11'2 4.3
2017-Sep-16 10:58N 38°41' W 009°14'1 2.4
2017-Sep-16 10:29N 38°42' W 009°12'0 0.0
2017-Sep-14 18:58N 38°42' W 009°12'2 4.1
2017-Sep-14 18:29N 38°41' W 009°10'1 2.2
2017-Sep-14 17:57N 38°42' W 009°09'3 6.1
2017-Sep-14 17:24N 38°41' W 009°13'1 1.6
2017-Sep-14 16:59N 38°42' W 009°12'3 4.0
2017-Sep-14 16:19N 38°42' W 009°09'0 1.3
2017-Sep-14 15:59N 38°42' W 009°09'3 4.9
2017-Sep-14 15:25N 38°41' W 009°13'0 0.9
2017-Sep-14 14:56N 38°41' W 009°12'2 3.6
2017-Sep-14 14:30N 38°41' W 009°10'1 1.5
2017-Sep-14 13:48N 38°42' W 009°10'2 5.0
2017-Sep-14 13:29N 38°42' W 009°12'0 0.0
2017-Sep-13 19:04N 38°42' W 009°12'0 0.3
2017-Sep-13 19:00N 38°42' W 009°12'1 2.6
2017-Sep-13 18:30N 38°41' W 009°11'2 4.4
2017-Sep-13 17:59N 38°42' W 009°08'2 4.3
2017-Sep-13 17:30N 38°42' W 009°11'1 0.0
2017-Sep-12 15:06N 38°42' W 009°12'0 0.0
2017-Sep-12 14:59N 38°42' W 009°12'2 4.6
2017-Sep-12 14:30N 38°41' W 009°10'1 1.1
2017-Sep-12 13:58N 38°42' W 009°09'3 5.2
2017-Sep-12 13:29N 38°41' W 009°13'0 0.5
2017-Sep-12 12:51N 38°42' W 009°12'0 0.0
2017-Sep-11 19:05N 38°42' W 009°12'0 1.4
2017-Sep-11 19:00N 38°42' W 009°12'2 3.9
2017-Sep-11 18:23N 38°41' W 009°09'1 2.6
2017-Sep-11 18:00N 38°42' W 009°08'3 5.1
2017-Sep-11 17:29N 38°42' W 009°12'1 0.2
2017-Sep-11 14:58N 38°42' W 009°12'2 3.7
2017-Sep-11 14:28N 38°41' W 009°10'2 3.5
2017-Sep-11 14:00N 38°42' W 009°08'4 5.2
2017-Sep-11 13:17N 38°41' W 009°13'1 0.4
2017-Sep-11 11:37N 38°42' W 009°12'0 0.0
2017-Sep-11 11:27N 38°42' W 009°12'2 4.4
2017-Sep-11 10:56N 38°42' W 009°09'0 0.8
2017-Sep-11 10:30N 38°42' W 009°10'2 3.9
2017-Sep-11 10:00N 38°42' W 009°12'0 0.0
2017-Sep-10 19:30N 38°42' W 009°12'2 4.1
2017-Sep-10 19:00N 38°42' W 009°10'0 0.8
2017-Sep-10 18:31N 38°42' W 009°10'2 3.2
2017-Sep-10 17:59N 38°42' W 009°12'0 0.3
2017-Sep-10 17:29N 38°42' W 009°12'1 2.8
2017-Sep-10 16:58N 38°42' W 009°10'2 3.9
2017-Sep-10 16:29N 38°42' W 009°08'2 3.6
2017-Sep-10 15:58N 38°42' W 009°10'1 2.7
2017-Sep-10 15:25N 38°42' W 009°12'0 0.7
2017-Sep-10 14:59N 38°42' W 009°12'3 3.2
2017-Sep-10 14:00N 38°42' W 009°08'2 4.3
2017-Sep-10 13:27N 38°42' W 009°11'1 1.4
2017-Sep-10 12:43N 38°42' W 009°12'0 0.0
2017-Sep-10 11:06N 38°42' W 009°12'0 0.3
2017-Sep-10 10:58N 38°42' W 009°12'2 4.1
2017-Sep-10 10:30N 38°41' W 009°10'1 1.6
2017-Sep-10 09:58N 38°42' W 009°09'2 4.7
2017-Sep-10 09:30N 38°42' W 009°12'  
Track history (hours):
 
Tides and Currents Weather Stations Pressure Air Temp Water Temp Dewpoint Dewpoint Depression Visibility Wind Speed Wind Dir Waves Ship Positions

Palmayachts

Last reported at 2017-Sep-19 19:11 UTC. Time now 2017-Sep-19 22:42 UTC.
Position N 38°42' W 009°12'.

Length 11 m.

Type: Sailing vessel. MMSI: 263950950.

Date/timePositionNaut miles runAvg speedWind from/ knotsBaromVisibWave heightAir tempDewpointWater temp
2017-Sep-19 19:11N 38°42' W 009°12'0 1.0
2017-Sep-19 19:00N 38°41' W 009°12'3 6.1
2017-Sep-19 18:30N 38°42' W 009°08'2 3.2
2017-Sep-19 18:00N 38°42' W 009°10'2 4.2
2017-Sep-19 17:29N 38°41' W 009°13'1 0.0
2017-Sep-18 19:55N 38°42' W 009°12'1 3.1
2017-Sep-18 19:28N 38°41' W 009°11'2 4.6
2017-Sep-18 19:00N 38°42' W 009°08'3 4.7
2017-Sep-18 18:27N 38°42' W 009°12'1 1.1
2017-Sep-18 17:57N 38°42' W 009°12'1 3.3
2017-Sep-18 17:30N 38°41' W 009°10'1 2.0
2017-Sep-18 16:56N 38°42' W 009°09'2 4.6
2017-Sep-18 16:30N 38°42' W 009°12'0 0.5
2017-Sep-18 15:58N 38°42' W 009°12'1 1.4
2017-Sep-18 15:29N 38°42' W 009°11'1 0.4
2017-Sep-18 13:53N 38°42' W 009°12'1 2.8
2017-Sep-18 13:29N 38°41' W 009°11'2 4.1
2017-Sep-18 13:00N 38°42' W 009°09'1 1.4
2017-Sep-18 12:30N 38°42' W 009°09'2 4.3
2017-Sep-18 12:00N 38°42' W 009°12'0 0.3
2017-Sep-18 11:26N 38°42' W 009°12'0 0.0
2017-Sep-18 09:48N 38°42' W 009°12'0 0.0
2017-Sep-17 18:24N 38°42' W 009°12'1 2.7
2017-Sep-17 17:59N 38°41' W 009°11'2 3.4
2017-Sep-17 17:24N 38°42' W 009°09'2 4.2
2017-Sep-17 17:00N 38°42' W 009°11'1 2.3
2017-Sep-17 16:31N 38°42' W 009°12'0 0.0
2017-Sep-17 12:02N 38°42' W 009°12'0 0.2
2017-Sep-17 11:59N 38°42' W 009°12'1 2.8
2017-Sep-17 11:29N 38°42' W 009°10'2 3.8
2017-Sep-17 10:58N 38°42' W 009°08'2 3.1
2017-Sep-17 10:22N 38°42' W 009°06'1 2.6
2017-Sep-17 09:59N 38°41' W 009°06'3 6.4
2017-Sep-17 09:30N 38°41' W 009°10'2 0.1
2017-Sep-16 13:23N 38°42' W 009°12'0 0.3
2017-Sep-16 12:58N 38°42' W 009°12'2 4.7
2017-Sep-16 12:29N 38°42' W 009°09'1 1.6
2017-Sep-16 11:51N 38°42' W 009°08'2 5.8
2017-Sep-16 11:30N 38°42' W 009°11'2 4.3
2017-Sep-16 10:58N 38°41' W 009°14'1 2.4
2017-Sep-16 10:29N 38°42' W 009°12'0 0.0
2017-Sep-14 18:58N 38°42' W 009°12'2 4.1
2017-Sep-14 18:29N 38°41' W 009°10'1 2.2
2017-Sep-14 17:57N 38°42' W 009°09'3 6.1
2017-Sep-14 17:24N 38°41' W 009°13'1 1.6
2017-Sep-14 16:59N 38°42' W 009°12'3 4.0
2017-Sep-14 16:19N 38°42' W 009°09'0 1.3
2017-Sep-14 15:59N 38°42' W 009°09'3 4.9
2017-Sep-14 15:25N 38°41' W 009°13'0 0.9
2017-Sep-14 14:56N 38°41' W 009°12'2 3.6
2017-Sep-14 14:30N 38°41' W 009°10'1 1.5
2017-Sep-14 13:48N 38°42' W 009°10'2 5.0
2017-Sep-14 13:29N 38°42' W 009°12'0 0.0
2017-Sep-13 19:04N 38°42' W 009°12'0 0.3
2017-Sep-13 19:00N 38°42' W 009°12'1 2.6
2017-Sep-13 18:30N 38°41' W 009°11'2 4.4
2017-Sep-13 17:59N 38°42' W 009°08'2 4.3
2017-Sep-13 17:30N 38°42' W 009°11'1 0.0
2017-Sep-12 15:06N 38°42' W 009°12'0 0.0
2017-Sep-12 14:59N 38°42' W 009°12'2 4.6
2017-Sep-12 14:30N 38°41' W 009°10'1 1.1
2017-Sep-12 13:58N 38°42' W 009°09'3 5.2
2017-Sep-12 13:29N 38°41' W 009°13'0 0.5
2017-Sep-12 12:51N 38°42' W 009°12'0 0.0
2017-Sep-11 19:05N 38°42' W 009°12'0 1.4
2017-Sep-11 19:00N 38°42' W 009°12'2 3.9
2017-Sep-11 18:23N 38°41' W 009°09'1 2.6
2017-Sep-11 18:00N 38°42' W 009°08'3 5.1
2017-Sep-11 17:29N 38°42' W 009°12'1 0.2
2017-Sep-11 14:58N 38°42' W 009°12'2 3.7
2017-Sep-11 14:28N 38°41' W 009°10'2 3.5
2017-Sep-11 14:00N 38°42' W 009°08'4 5.2
2017-Sep-11 13:17N 38°41' W 009°13'1 0.4
2017-Sep-11 11:37N 38°42' W 009°12'0 0.0
2017-Sep-11 11:27N 38°42' W 009°12'2 4.4
2017-Sep-11 10:56N 38°42' W 009°09'0 0.8
2017-Sep-11 10:30N 38°42' W 009°10'2 3.9
2017-Sep-11 10:00N 38°42' W 009°12'0 0.0
2017-Sep-10 19:30N 38°42' W 009°12'2 4.1
2017-Sep-10 19:00N 38°42' W 009°10'0 0.8
2017-Sep-10 18:31N 38°42' W 009°10'2 3.2
2017-Sep-10 17:59N 38°42' W 009°12'0 0.3
2017-Sep-10 17:29N 38°42' W 009°12'1 2.8
2017-Sep-10 16:58N 38°42' W 009°10'2 3.9
2017-Sep-10 16:29N 38°42' W 009°08'2 3.6
2017-Sep-10 15:58N 38°42' W 009°10'1 2.7
2017-Sep-10 15:25N 38°42' W 009°12'0 0.7
2017-Sep-10 14:59N 38°42' W 009°12'3 3.2
2017-Sep-10 14:00N 38°42' W 009°08'2 4.3
2017-Sep-10 13:27N 38°42' W 009°11'1 1.4
2017-Sep-10 12:43N 38°42' W 009°12'0 0.0
2017-Sep-10 11:06N 38°42' W 009°12'0 0.3
2017-Sep-10 10:58N 38°42' W 009°12'2 4.1
2017-Sep-10 10:30N 38°41' W 009°10'1 1.6
2017-Sep-10 09:58N 38°42' W 009°09'2 4.7
2017-Sep-10 09:30N 38°42' W 009°12'  

Dump ship's entire track history